Aérodrome :
LOGIN :

S'inscrire | Disclaimer

   EN    FR    IT 

 










Légende :    VFR   VFR Marginal   IFR   IFR Intensif   IFR Très Intensif
Visi : 
Plafond : 
>= 8 km
>= 3000ft
5 à 8 km
1000 à 3000 ft
1500m à 5 km
500 à 1000 ft
800 à 1500m
200 à 500 ft
< 800m
< 200 ft
Symboles :   Orages  Brouillard  Fortes neiges  Fortes précipitations  Vent > 20 kt
SIGMETs :   Divers  Orages  Givrage  Turbulence  Onde Orograph.  Cendres Volcan.







- Altitude de l'aérodrome : 297 ft
- Code IATA : UIP
- Voir les cartes d'approche


LFRQ - Quimper Pluguffan

DERNIER METAR :
  • 280800Z AUTO 25004KT 220V290 9999 -RA BKN039 BKN048 OVC054 09/08 Q1020 TEMPO 4000 -RA OVC013

METARs EXPIRÉS :
  • 280730Z AUTO 31005KT 9999 -RA SCT041/// BKN048/// OVC056/// ///TCU 09/06 Q1020 TEMPO 4000 -RA BECMG SCT015 BKN040
  • 280700Z AUTO 34004KT 320V020 9999 BKN046/// OVC056/// ///CB 09/06 Q1020 TEMPO 4000 -RA OVC013
  • 280630Z AUTO VRB03KT 9999 BKN036 BKN046 OVC054 08/06 Q1020 TEMPO 4000 -RA OVC013
  • 280600Z AUTO 29004KT 9999 FEW019 SCT026 BKN033 07/05 Q1020 TEMPO 4000 -RA OVC013
  • 280530Z AUTO 28002KT 9999 FEW027 BKN048 OVC058 06/05 Q1020 TEMPO 4000 -RA OVC013

TAF TAF LFRQ
Valide du 28 à 06h jusqu'au 28 à 15h UTC


280500Z 2806/2815 28005KT 9999 SCT015 BKN040
TEMPO 2806/2809 4000 -RA OVC013
TEMPO 2809/2815 SHRA
Pas de NOTAMs connus pour ce terrain.



MET'MAP, la Météo Aéronautique d'un coup d'oeil ! - Copyright ORBIFLY Décembre 2007 - Disclaimer

ORBIFLY MET'MAP TEAM :

Programmation & Développement : Alexandra Zaïnal
Conception & Développement : Baudouin d'Aumeries
Co-Programmation & Développement : Marc-Olivier Méhu
Soutien technique & logistique : Manuel Goepfert

Contact : metmap@orbifly.com




SOURCES & CREDITS :

   NOAA